History for KNYNEWYO343

Midtown West, New York, NY — Current Conditions
Daily Summary for December 16, 2018
  Current: High: Low: Average:
Temperature: 40.5°F 48.0°F 39.7°F 43.8°F
Dew Point: 38.9°F 40.1°F 34.3°F 38.2°F
Humidity: 94% 95% 66% 88%
Wind Speed: 0.0mph 2.9mph - 0.2mph
Wind Gust: 0.0mph 5.8mph - -
Wind: NNE - - NE
Pressure: 29.80in 30.09in 29.80in -
Precipitation: 1.73in      
Solar Radiation: 0 watts/m^2      
UV Index: 0.0      
Statistics for the rest of the month
    High: Low: Average:
Temperature:   55.0°F 25.7°F 39.6°F
Dew Point:   54.2°F 11.3°F 29.0°F
Humidity:   98.0% 36.0% 66.5%
Wind Speed:   5.4mph from the WNW - 0.2mph
Wind Gust:   8.1mph from the SSE - -
Wind:   - - East
Pressure:   30.55in 29.56in -
Precipitation:   3.19in    
KNYNEWYO343 Weather Graph
Tabular Data for December 16, 2018
Time Temp. Dew Point Pressure Wind Gust Humidity Rainfall Solar Radiation
00:04 48°F 39.0525°F 30.07in 1.1mph 71% 0in 0.00 watts/m^2
00:09 47.5°F 38.93°F 30.06in 1.1mph 72% 0in 0.00 watts/m^2
00:14 47.5°F 39.2831°F 30.05in 0mph 73% 0in 0.00 watts/m^2
00:19 47.7°F 39.4758°F 30.05in 0mph 73% 0in 0.00 watts/m^2
00:24 47.5°F 39.6321°F 30.05in 1.1mph 74% 0in 0.00 watts/m^2
00:29 47.1°F 38.8978°F 30.04in 1.1mph 73% 0in 0.00 watts/m^2
00:34 46.9°F 38.3529°F 30.05in 0mph 72% 0in 0.00 watts/m^2
00:39 46.8°F 38.2567°F 30.06in 1.1mph 72% 0in 0.00 watts/m^2
00:44 46.8°F 38.2567°F 30.06in 2.2mph 72% 0in 0.00 watts/m^2
00:49 46.8°F 38.2567°F 30.06in 4.5mph 72% 0in 0.00 watts/m^2
00:54 46.8°F 37.9003°F 30.06in 0mph 71% 0in 0.00 watts/m^2
00:59 46.6°F 37.7083°F 30.06in 2.2mph 71% 0in 0.00 watts/m^2
01:04 46.6°F 37.7083°F 30.06in 0mph 71% 0in 0.00 watts/m^2
01:09 46.6°F 37.7083°F 30.06in 0mph 71% 0in 0.00 watts/m^2
01:14 46.4°F 37.156°F 30.05in 1.1mph 70% 0in 0.00 watts/m^2
01:19 46.2°F 36.9643°F 30.05in 0mph 70% 0in 0.00 watts/m^2
01:22 46.2°F 36.5998°F 30.04in 0mph 69% 0in 0.00 watts/m^2
01:29 46.2°F 36.2306°F 30.05in 0mph 68% 0in 0.00 watts/m^2
01:34 46.2°F 35.8566°F 30.05in 1.1mph 67% 0in 0.00 watts/m^2
01:39 46°F 36.0395°F 30.06in 1.1mph 68% 0in 0.00 watts/m^2
01:44 46.2°F 35.8566°F 30.06in 1.1mph 67% 0in 0.00 watts/m^2
01:49 46°F 35.2872°F 30.06in 2.2mph 66% 0in 0.00 watts/m^2
01:54 46°F 35.2872°F 30.07in 0mph 66% 0in 0.00 watts/m^2
01:59 46°F 35.2872°F 30.07in 0mph 66% 0in 0.00 watts/m^2
02:04 45.9°F 35.192°F 30.07in 1.1mph 66% 0in 0.00 watts/m^2
02:09 45.7°F 35.0016°F 30.06in 0mph 66% 0in 0.00 watts/m^2
02:14 45.9°F 35.192°F 30.07in 1.1mph 66% 0in 0.00 watts/m^2
02:19 45.5°F 34.8111°F 30.07in 1.1mph 66% 0in 0.00 watts/m^2
02:24 45.7°F 35.0016°F 30.06in 0mph 66% 0in 0.00 watts/m^2
02:28 45.7°F 35.0016°F 30.07in 0mph 66% 0in 0.00 watts/m^2
02:34 45.7°F 35.0016°F 30.06in 3.4mph 66% 0in 0.00 watts/m^2
02:39 45.5°F 34.8111°F 30.07in 1.1mph 66% 0in 0.00 watts/m^2
02:44 45.5°F 34.8111°F 30.08in 0mph 66% 0in 0.00 watts/m^2
02:49 45.3°F 34.6207°F 30.07in 1.1mph 66% 0in 0.00 watts/m^2
02:54 45.3°F 34.6207°F 30.08in 1.1mph 66% 0in 0.00 watts/m^2
02:59 45.1°F 34.4303°F 30.09in 0mph 66% 0in 0.00 watts/m^2
03:04 45°F 34.712°F 30.09in 0mph 67% 0in 0.00 watts/m^2
03:09 45.3°F 34.6207°F 30.09in 0mph 66% 0in 0.00 watts/m^2
03:13 45.3°F 34.6207°F 30.09in 0mph 66% 0in 0.00 watts/m^2
03:19 45.1°F 34.4303°F 30.09in 2.2mph 66% 0in 0.00 watts/m^2
03:24 44.8°F 35.6221°F 30.07in 1.1mph 70% 0in 0.00 watts/m^2
03:29 44.4°F 35.9482°F 30.08in 1.1mph 72% 0.01in 0.00 watts/m^2
03:34 43.7°F 36.9704°F 30.07in 0mph 77% 0.03in 0.00 watts/m^2
03:39 43.2°F 37.7705°F 30.06in 0mph 81% 0.04in 0.00 watts/m^2
03:44 42.6°F 37.4969°F 30.06in 0mph 82% 0.06in 0.00 watts/m^2
03:49 42.4°F 37.6095°F 30.05in 0mph 83% 0.08in 0.00 watts/m^2
03:54 42.3°F 37.8163°F 30.05in 0mph 84% 0.08in 0.00 watts/m^2
03:59 42.3°F 37.8163°F 30.05in 0mph 84% 0.09in 0.00 watts/m^2
04:04 42.3°F 37.2038°F 30.04in 1.1mph 82% 0.09in 0.00 watts/m^2
04:09 42.3°F 37.8163°F 30.04in 1.1mph 84% 0.1in 0.00 watts/m^2
04:14 42.3°F 37.8163°F 30.04in 0mph 84% 0.11in 0.00 watts/m^2
04:19 42.3°F 38.1177°F 30.04in 0mph 85% 0.12in 0.00 watts/m^2
04:24 42.3°F 37.8163°F 30.04in 0mph 84% 0.12in 0.00 watts/m^2
04:29 42.1°F 38.2196°F 30.05in 0mph 86% 0.1in 0.00 watts/m^2
04:34 42.1°F 38.2196°F 30.05in 0mph 86% 0.1in 0.00 watts/m^2
04:39 42.1°F 38.2196°F 30.06in 0mph 86% 0.09in 0.00 watts/m^2
04:44 42.1°F 39.0957°F 30.07in 0mph 89% 0.09in 0.00 watts/m^2
04:49 42.1°F 38.8066°F 30.08in 0mph 88% 0.09in 0.00 watts/m^2
04:54 41.9°F 38.6096°F 30.08in 0mph 88% 0.1in 0.00 watts/m^2
04:59 41.9°F 38.6096°F 30.07in 0mph 88% 0.11in 0.00 watts/m^2
05:04 41.5°F 37.9244°F 30.07in 1.1mph 87% 0.12in 0.00 watts/m^2
05:09 41.4°F 38.4053°F 30.07in 2.2mph 89% 0.1in 0.00 watts/m^2
05:14 41°F 38.2956°F 30.07in 1.1mph 90% 0.1in 0.00 watts/m^2
05:19 40.8°F 38.0981°F 30.07in 0mph 90% 0.12in 0.00 watts/m^2
05:24 40.6°F 38.1821°F 30.06in 0mph 91% 0.16in 0.00 watts/m^2
05:29 40.6°F 38.4609°F 30.05in 1.1mph 92% 0.17in 0.00 watts/m^2
05:34 40.5°F 38.3619°F 30.05in 0mph 92% 0.2in 0.00 watts/m^2
05:39 40.5°F 38.3619°F 30.04in 2.2mph 92% 0.2in 0.00 watts/m^2
05:44 40.5°F 38.6379°F 30.04in 0mph 93% 0.2in 0.00 watts/m^2
05:49 40.3°F 38.1638°F 30.03in 0mph 92% 0.22in 0.00 watts/m^2
05:54 40.3°F 38.1638°F 30.02in 1.1mph 92% 0.22in 0.00 watts/m^2
05:59 40.1°F 37.9658°F 30.01in 1.1mph 92% 0.23in 0.00 watts/m^2
06:04 39.9°F 37.7677°F 30.01in 1.1mph 92% 0.24in 0.00 watts/m^2
06:09 40.1°F 37.9658°F 30.00in 0mph 92% 0.25in 0.00 watts/m^2
06:14 40.1°F 38.2413°F 29.99in 0mph 93% 0.26in 0.00 watts/m^2
06:19 40.1°F 38.2413°F 30.00in 0mph 93% 0.26in 0.00 watts/m^2
06:24 40.3°F 38.4396°F 29.99in 0mph 93% 0.23in 0.00 watts/m^2
06:29 40.3°F 38.4396°F 29.99in 0mph 93% 0.24in 0.00 watts/m^2
06:34 40.1°F 38.2413°F 30.00in 0mph 93% 0.24in 0.00 watts/m^2
06:39 39.9°F 38.043°F 30.00in 1.1mph 93% 0.24in 0.00 watts/m^2
06:44 39.9°F 38.043°F 30.01in 2.2mph 93% 0.24in 0.00 watts/m^2
06:49 40.1°F 38.2413°F 30.02in 1.1mph 93% 0.24in 0.00 watts/m^2
06:54 40.1°F 38.2413°F 30.02in 0mph 93% 0.22in 0.00 watts/m^2
06:59 40.5°F 38.6379°F 30.03in 0mph 93% 0.23in 0.00 watts/m^2
07:04 40.5°F 38.6379°F 30.03in 0mph 93% 0.22in 0.00 watts/m^2
07:09 40.3°F 38.4396°F 30.02in 0mph 93% 0.2in 0.00 watts/m^2
07:14 40.3°F 38.4396°F 30.02in 0mph 93% 0.18in 0.00 watts/m^2
07:19 39.9°F 37.7677°F 30.02in 0mph 92% 0.17in 0.00 watts/m^2
07:24 39.9°F 37.7677°F 30.01in 1.1mph 92% 0.15in 0.00 watts/m^2
07:29 39.9°F 37.7677°F 30.01in 0mph 92% 0.13in 0.00 watts/m^2
07:34 39.7°F 37.5697°F 30.01in 0mph 92% 0.1in 0.36 watts/m^2
07:39 40.1°F 37.6876°F 30.01in 0mph 91% 0.09in 1.22 watts/m^2
07:44 40.1°F 37.6876°F 30.01in 0mph 91% 0.06in 1.71 watts/m^2
07:49 40.1°F 37.9658°F 30.01in 0mph 92% 0.05in 2.57 watts/m^2
07:54 39.9°F 37.4898°F 30.01in 0mph 91% 0.04in 1.71 watts/m^2
07:59 39.7°F 37.0116°F 30.01in 1.1mph 90% 0.02in 2.08 watts/m^2
08:04 39.7°F 37.5697°F 30.01in 0mph 92% 0.02in 2.08 watts/m^2
08:09 39.9°F 37.7677°F 30.01in 0mph 92% 0.01in 2.57 watts/m^2
08:14 39.9°F 37.7677°F 30.01in 0mph 92% 0.01in 1.71 watts/m^2
08:19 39.9°F 37.4898°F 30.00in 1.1mph 91% 0.01in 2.94 watts/m^2
08:24 39.7°F 37.292°F 30.00in 1.1mph 91% 0.02in 5.14 watts/m^2
08:29 39.7°F 37.5697°F 30.00in 0mph 92% 0.02in 7.34 watts/m^2
08:34 39.9°F 37.7677°F 29.99in 0mph 92% 0.02in 7.34 watts/m^2
08:39 39.7°F 37.292°F 30.00in 2.2mph 91% 0.02in 9.54 watts/m^2
08:44 39.7°F 37.8447°F 30.00in 1.1mph 93% 0.03in 8.56 watts/m^2
08:49 39.9°F 38.043°F 30.00in 0mph 93% 0.03in 7.70 watts/m^2
08:54 39.9°F 37.7677°F 30.00in 2.2mph 92% 0.03in 3.79 watts/m^2
08:59 39.9°F 38.043°F 30.00in 0mph 93% 0.04in 5.63 watts/m^2
09:04 39.7°F 37.5697°F 30.00in 1.1mph 92% 0.04in 5.63 watts/m^2
09:09 39.9°F 38.043°F 29.99in 0mph 93% 0.04in 5.99 watts/m^2
09:14 39.7°F 37.8447°F 29.99in 0mph 93% 0.04in 5.14 watts/m^2
09:19 40.1°F 38.2413°F 29.99in 0mph 93% 0.04in 7.34 watts/m^2
09:24 40.1°F 37.9658°F 29.98in 0mph 92% 0.03in 7.70 watts/m^2
09:29 40.1°F 37.9658°F 29.98in 0mph 92% 0.03in 7.34 watts/m^2
09:34 40.1°F 37.9658°F 29.99in 0mph 92% 0.04in 6.85 watts/m^2
09:39 39.9°F 38.043°F 29.98in 0mph 93% 0.04in 7.34 watts/m^2
09:44 40.1°F 38.2413°F 29.98in 0mph 93% 0.03in 7.70 watts/m^2
09:49 40.1°F 38.2413°F 29.99in 0mph 93% 0.03in 9.05 watts/m^2
09:54 40.3°F 38.4396°F 29.98in 0mph 93% 0.03in 9.05 watts/m^2
09:58 40.5°F 38.6379°F 29.99in 1.1mph 93% 0.02in 11.25 watts/m^2
10:04 40.1°F 38.2413°F 29.99in 0mph 93% 0.03in 10.39 watts/m^2
10:09 40.1°F 38.2413°F 29.98in 0mph 93% 0.03in 6.48 watts/m^2
10:14 40.3°F 38.1638°F 29.99in 0mph 92% 0.03in 9.05 watts/m^2
10:18 40.3°F 38.4396°F 29.97in 1.1mph 93% 0.03in 11.25 watts/m^2
10:24 40.1°F 38.2413°F 29.96in 0mph 93% 0.05in 9.91 watts/m^2
10:29 40.3°F 38.7128°F 29.95in 0mph 94% 0.05in 12.11 watts/m^2
10:34 40.3°F 38.7128°F 29.96in 1.1mph 94% 0.07in 12.48 watts/m^2
10:38 40.5°F 38.9113°F 29.96in 0mph 94% 0.06in 14.31 watts/m^2
10:43 40.8°F 39.2092°F 29.96in 0mph 94% 0.06in 17.25 watts/m^2
10:46 40.8°F 39.2092°F 29.95in 0mph 94% 0.06in 14.31 watts/m^2
10:53 40.5°F 38.3619°F 29.95in 0mph 92% 0.07in 14.68 watts/m^2
10:59 40.5°F 38.6379°F 29.95in 0mph 93% 0.07in 14.68 watts/m^2
11:03 40.6°F 38.7371°F 29.94in 2.2mph 93% 0.06in 18.11 watts/m^2
11:08 40.5°F 38.6379°F 29.94in 0mph 93% 0.07in 9.05 watts/m^2
11:13 40.3°F 38.4396°F 29.94in 0mph 93% 0.08in 10.39 watts/m^2
11:18 40.5°F 38.9113°F 29.93in 0mph 94% 0.07in 12.11 watts/m^2
11:24 40.6°F 39.0106°F 29.93in 1.1mph 94% 0.05in 12.97 watts/m^2
11:29 40.6°F 38.7371°F 29.92in 0mph 93% 0.05in 18.11 watts/m^2
11:33 40.6°F 39.0106°F 29.91in 0mph 94% 0.06in 14.68 watts/m^2
11:39 40.8°F 39.2092°F 29.91in 0mph 94% 0.07in 14.31 watts/m^2
11:43 40.6°F 39.0106°F 29.90in 0mph 94% 0.07in 14.31 watts/m^2
11:48 40.6°F 38.7371°F 29.90in 1.1mph 93% 0.07in 16.88 watts/m^2
11:52 40.6°F 39.0106°F 29.90in 0mph 94% 0.07in 12.48 watts/m^2
11:58 40.8°F 39.2092°F 29.90in 0mph 94% 0.08in 15.17 watts/m^2
12:03 40.8°F 39.2092°F 29.89in 0mph 94% 0.09in 15.17 watts/m^2
12:09 40.8°F 39.2092°F 29.88in 0mph 94% 0.09in 17.25 watts/m^2
12:13 41°F 39.4077°F 29.88in 0mph 94% 0.09in 18.60 watts/m^2
12:18 41°F 39.4077°F 29.87in 0mph 94% 0.1in 21.16 watts/m^2
12:23 41°F 39.4077°F 29.87in 1.1mph 94% 0.1in 18.11 watts/m^2
12:27 41°F 39.4077°F 29.87in 1.1mph 94% 0.1in 14.68 watts/m^2
12:33 41°F 39.4077°F 29.87in 0mph 94% 0.1in 12.11 watts/m^2
12:38 41.2°F 39.6063°F 29.86in 1.1mph 94% 0.09in 11.62 watts/m^2
12:43 41.4°F 39.8048°F 29.86in 1.1mph 94% 0.09in 9.05 watts/m^2
12:48 41.2°F 39.6063°F 29.85in 1.1mph 94% 0.09in 13.33 watts/m^2
12:54 41.4°F 39.8048°F 29.86in 1.1mph 94% 0.09in 6.85 watts/m^2
12:58 41.2°F 39.6063°F 29.85in 0mph 94% 0.1in 5.63 watts/m^2
13:04 41.4°F 40.0768°F 29.84in 0mph 95% 0.1in 10.39 watts/m^2
13:08 41.4°F 39.8048°F 29.85in 0mph 94% 0.09in 8.19 watts/m^2
13:11 41.4°F 39.8048°F 29.85in 0mph 94% 0.08in 5.99 watts/m^2
13:18 41.4°F 39.8048°F 29.85in 0mph 94% 0.08in 7.70 watts/m^2
13:23 41.4°F 39.8048°F 29.84in 0mph 94% 0.07in 5.63 watts/m^2
13:28 41.5°F 39.9041°F 29.84in 0mph 94% 0.07in 5.99 watts/m^2
13:33 41.4°F 39.8048°F 29.83in 0mph 94% 0.08in 6.85 watts/m^2
13:35 41.4°F 39.8048°F 29.83in 0mph 94% 0.08in 5.99 watts/m^2
13:43 41.4°F 39.8048°F 29.84in 1.1mph 94% 0.09in 4.77 watts/m^2
13:47 41.4°F 39.5302°F 29.84in 1.1mph 93% 0.1in 5.14 watts/m^2
13:53 41.4°F 39.5302°F 29.83in 1.1mph 93% 0.1in 4.28 watts/m^2
13:58 41.4°F 39.5302°F 29.83in 0mph 93% 0.11in 2.94 watts/m^2
14:03 41.4°F 39.8048°F 29.83in 0mph 94% 0.12in 2.57 watts/m^2
14:09 41.4°F 39.8048°F 29.83in 0mph 94% 0.16in 2.57 watts/m^2
14:12 41.4°F 39.8048°F 29.83in 0mph 94% 0.17in 3.43 watts/m^2
14:18 41.2°F 39.6063°F 29.83in 0mph 94% 0.2in 2.94 watts/m^2
14:23 41°F 39.4077°F 29.83in 0mph 94% 0.22in 5.99 watts/m^2
14:27 41.2°F 39.878°F 29.83in 0mph 95% 0.23in 3.79 watts/m^2
14:33 40.8°F 39.2092°F 29.82in 0mph 94% 0.26in 5.63 watts/m^2
14:38 40.8°F 39.2092°F 29.82in 1.1mph 94% 0.28in 9.54 watts/m^2
14:43 40.8°F 39.2092°F 29.82in 0mph 94% 0.31in 9.91 watts/m^2
14:47 40.8°F 39.2092°F 29.82in 0mph 94% 0.33in 9.54 watts/m^2
14:53 40.8°F 39.2092°F 29.82in 1.1mph 94% 0.32in 12.48 watts/m^2
14:58 40.8°F 39.2092°F 29.81in 0mph 94% 0.31in 8.19 watts/m^2
15:03 40.8°F 39.2092°F 29.81in 0mph 94% 0.32in 5.63 watts/m^2
15:08 40.8°F 39.2092°F 29.81in 0mph 94% 0.31in 3.79 watts/m^2
15:12 40.8°F 39.2092°F 29.81in 1.1mph 94% 0.31in 6.85 watts/m^2
15:14 40.8°F 39.2092°F 29.81in 0mph 94% 0.31in 5.99 watts/m^2
15:23 41°F 39.4077°F 29.81in 1.1mph 94% 0.27in 5.14 watts/m^2
15:29 40.8°F 38.9354°F 29.82in 1.1mph 93% 0.26in 2.08 watts/m^2
15:33 40.8°F 38.9354°F 29.82in 1.1mph 93% 0.23in 2.57 watts/m^2
15:38 41°F 39.1337°F 29.82in 1.1mph 93% 0.2in 1.22 watts/m^2
15:43 40.8°F 38.9354°F 29.81in 0mph 93% 0.17in 1.22 watts/m^2
15:48 40.8°F 38.9354°F 29.81in 1.1mph 93% 0.14in 0.85 watts/m^2
15:54 40.8°F 39.2092°F 29.81in 1.1mph 94% 0.14in 0.36 watts/m^2
15:58 40.8°F 39.2092°F 29.81in 0mph 94% 0.14in 0.00 watts/m^2
16:03 40.8°F 39.2092°F 29.81in 0mph 94% 0.11in 0.00 watts/m^2
16:08 40.8°F 39.2092°F 29.81in 0mph 94% 0.1in 0.00 watts/m^2
16:14 40.6°F 39.0106°F 29.81in 0mph 94% 0.08in 0.00 watts/m^2
16:18 40.8°F 39.2092°F 29.81in 0mph 94% 0.07in 0.00 watts/m^2
16:24 40.8°F 39.2092°F 29.81in 1.1mph 94% 0.06in 0.00 watts/m^2
16:29 40.8°F 39.2092°F 29.81in 0mph 94% 0.05in 0.00 watts/m^2
16:34 40.8°F 39.2092°F 29.81in 0mph 94% 0.04in 0.00 watts/m^2
16:39 40.8°F 39.2092°F 29.80in 0mph 94% 0.04in 0.00 watts/m^2
16:43 40.8°F 39.2092°F 29.81in 0mph 94% 0.04in 0.00 watts/m^2
16:48 40.8°F 39.2092°F 29.80in 0mph 94% 0.05in 0.00 watts/m^2
16:53 40.8°F 39.2092°F 29.81in 0mph 94% 0.04in 0.00 watts/m^2
16:59 41°F 39.4077°F 29.81in 0mph 94% 0.04in 0.00 watts/m^2
17:03 41.2°F 39.6063°F 29.80in 1.1mph 94% 0.05in 0.00 watts/m^2
17:09 41.2°F 39.6063°F 29.81in 0mph 94% 0.05in 0.00 watts/m^2
17:14 41°F 39.4077°F 29.80in 1.1mph 94% 0.06in 0.00 watts/m^2
17:19 40.8°F 38.9354°F 29.80in 2.2mph 93% 0.07in 0.00 watts/m^2
17:24 41°F 39.4077°F 29.80in 0mph 94% 0.07in 0.00 watts/m^2
17:29 41°F 39.4077°F 29.80in 1.1mph 94% 0.06in 0.00 watts/m^2
17:34 41°F 39.4077°F 29.81in 0mph 94% 0.07in 0.00 watts/m^2
17:39 40.5°F 38.9113°F 29.80in 3.4mph 94% 0.08in 0.00 watts/m^2
17:44 40.5°F 38.9113°F 29.81in 0mph 94% 0.08in 0.00 watts/m^2
17:49 40.5°F 39.1822°F 29.80in 0mph 95% 0.08in 0.00 watts/m^2
17:54 40.5°F 38.9113°F 29.80in 0mph 94% 0.09in 0.00 watts/m^2
17:59 40.5°F 38.9113°F 29.81in 0mph 94% 0.08in 0.00 watts/m^2
18:04 40.5°F 38.9113°F 29.80in 0mph 94% 0.08in 0.00 watts/m^2
18:09 40.5°F 38.6379°F 29.81in 0mph 93% 0.07in 0.00 watts/m^2
Comma Delimited File
Powered by Weather Underground, Inc.